TimeMDT,TemperatureF,Dew PointF,Humidity,Sea Level PressureIn,VisibilityMPH,Wind Direction,Wind SpeedMPH,Gust SpeedMPH,PrecipitationIn,Events,Conditions,WindDirDegrees,DateUTC
12:03 AM,37.4,35.6,93,29.68,10.0,South,8.1,-,N/A,,Overcast,190,2013-04-08 06:03:00
12:53 AM,37.9,36.0,93,29.66,10.0,SSW,4.6,-,N/A,,Overcast,200,2013-04-08 06:53:00
1:53 AM,36.0,34.0,93,29.63,10.0,South,5.8,-,N/A,,Clear,190,2013-04-08 07:53:00
2:53 AM,37.0,34.0,89,29.62,10.0,SSW,9.2,-,N/A,,Overcast,210,2013-04-08 08:53:00
3:23 AM,35.6,33.8,93,29.63,10.0,SW,5.8,-,N/A,,Overcast,220,2013-04-08 09:23:00
3:53 AM,36.0,35.1,97,29.62,10.0,SW,6.9,-,N/A,,Overcast,230,2013-04-08 09:53:00
4:04 AM,35.6,35.6,100,29.62,1.8,SW,6.9,-,N/A,,Overcast,220,2013-04-08 10:04:00
4:18 AM,35.6,35.6,100,29.62,0.8,SW,5.8,-,N/A,,Mist,220,2013-04-08 10:18:00
4:28 AM,35.6,35.6,100,29.62,1.0,SW,8.1,-,N/A,,Mist,230,2013-04-08 10:28:00
4:43 AM,35.6,35.6,100,29.61,0.8,SW,9.2,-,N/A,,Mist,230,2013-04-08 10:43:00
4:53 AM,35.1,34.0,96,29.61,2.0,SW,11.5,-,N/A,,Overcast,230,2013-04-08 10:53:00
5:00 AM,33.8,33.8,100,29.61,10.0,SW,15.0,-,N/A,,Overcast,230,2013-04-08 11:00:00
5:16 AM,33.8,33.8,100,29.61,10.0,SW,10.4,-,N/A,,Overcast,230,2013-04-08 11:16:00
5:53 AM,33.1,30.9,92,29.63,10.0,WSW,10.4,-,N/A,,Overcast,240,2013-04-08 11:53:00
6:28 AM,32.0,30.2,93,29.60,10.0,West,9.2,-,N/A,,Overcast,270,2013-04-08 12:28:00
6:53 AM,32.0,30.0,92,29.65,10.0,SW,6.9,-,N/A,,Overcast,220,2013-04-08 12:53:00
7:36 AM,30.2,30.2,100,29.64,10.0,SW,10.4,-,N/A,,Overcast,230,2013-04-08 13:36:00
7:53 AM,30.9,30.0,96,29.67,10.0,SW,10.4,-,N/A,,Overcast,230,2013-04-08 13:53:00
8:53 AM,30.9,30.0,96,29.69,10.0,WSW,10.4,-,N/A,,Overcast,240,2013-04-08 14:53:00
9:53 AM,32.0,30.0,92,29.68,9.0,WSW,10.4,-,0.00,Snow,Light Snow,250,2013-04-08 15:53:00
10:53 AM,34.0,33.1,96,29.69,9.0,West,10.4,-,0.00,,Overcast,260,2013-04-08 16:53:00
11:53 AM,36.0,34.0,93,29.70,10.0,WSW,12.7,-,N/A,,Overcast,250,2013-04-08 17:53:00
12:09 PM,37.4,35.6,93,29.67,10.0,WSW,16.1,-,0.01,,Overcast,250,2013-04-08 18:09:00
12:35 PM,39.2,35.6,87,29.67,10.0,WSW,18.4,-,0.01,,Overcast,240,2013-04-08 18:35:00
12:53 PM,42.1,34.0,73,29.68,10.0,West,18.4,24.2,0.01,,Overcast,260,2013-04-08 18:53:00
1:02 PM,42.8,33.8,70,29.67,10.0,WSW,16.1,24.2,N/A,,Overcast,240,2013-04-08 19:02:00
1:37 PM,46.4,33.8,62,29.65,10.0,WSW,19.6,25.3,N/A,,Mostly Cloudy,250,2013-04-08 19:37:00
1:53 PM,48.0,33.1,56,29.65,10.0,WSW,20.7,29.9,N/A,,Scattered Clouds,240,2013-04-08 19:53:00
2:53 PM,51.1,30.9,46,29.62,10.0,West,19.6,31.1,N/A,,Clear,260,2013-04-08 20:53:00
3:53 PM,51.1,30.0,44,29.61,10.0,WSW,18.4,28.8,N/A,,Mostly Cloudy,250,2013-04-08 21:53:00
4:14 PM,42.8,35.6,76,29.63,10.0,NNE,28.8,34.5,0.00,Rain,Light Rain,20,2013-04-08 22:14:00
4:21 PM,39.2,35.6,87,29.63,10.0,NNE,24.2,34.5,0.00,Rain,Light Rain,20,2013-04-08 22:21:00
4:53 PM,39.0,36.0,89,29.69,10.0,NNE,13.8,-,0.02,Rain,Light Rain,30,2013-04-08 22:53:00
5:53 PM,43.0,36.0,76,29.69,10.0,SSE,8.1,-,0.00,,Overcast,160,2013-04-08 23:53:00
6:53 PM,43.0,37.0,80,29.71,10.0,SSE,9.2,-,N/A,,Overcast,160,2013-04-09 00:53:00
7:53 PM,41.0,36.0,82,29.75,10.0,ESE,8.1,-,N/A,,Clear,120,2013-04-09 01:53:00
8:53 PM,37.9,34.0,86,29.77,10.0,ESE,6.9,-,N/A,,Clear,120,2013-04-09 02:53:00
9:53 PM,37.0,32.0,82,29.80,10.0,ESE,6.9,-,N/A,,Partly Cloudy,110,2013-04-09 03:53:00
10:53 PM,39.0,33.1,79,29.81,10.0,ESE,5.8,-,N/A,,Overcast,120,2013-04-09 04:53:00
11:53 PM,36.0,30.9,82,29.84,10.0,NNE,4.6,-,N/A,,Mostly Cloudy,30,2013-04-09 05:53:00